地図

経路データ

SID SEASON NUMBER BASIN SUBBASIN NAME ISO_TIME NATURE LAT LON WMO_WIND WMO_PRES WMO_AGENCY TRACK_TYPE DIST2LAND LANDFALL IFLAG USA_AGENCY USA_ATCF_ID USA_LAT USA_LON USA_RECORD USA_STATUS USA_WIND USA_PRES USA_SSHS USA_R34_NE USA_R34_SE USA_R34_SW USA_R34_NW USA_R50_NE USA_R50_SE USA_R50_SW USA_R50_NW USA_R64_NE USA_R64_SE USA_R64_SW USA_R64_NW USA_POCI USA_ROCI USA_RMW USA_EYE TOKYO_LAT TOKYO_LON TOKYO_GRADE TOKYO_WIND TOKYO_PRES TOKYO_R50_DIR TOKYO_R50_LONG TOKYO_R50_SHORT TOKYO_R30_DIR TOKYO_R30_LONG TOKYO_R30_SHORT TOKYO_LAND CMA_LAT CMA_LON CMA_CAT CMA_WIND CMA_PRES HKO_LAT HKO_LON HKO_CAT HKO_WIND HKO_PRES NEWDELHI_LAT NEWDELHI_LON NEWDELHI_GRADE NEWDELHI_WIND NEWDELHI_PRES NEWDELHI_CI NEWDELHI_DP NEWDELHI_POCI REUNION_LAT REUNION_LON REUNION_TYPE REUNION_WIND REUNION_PRES REUNION_TNUM REUNION_CI REUNION_RMW REUNION_R34_NE REUNION_R34_SE REUNION_R34_SW REUNION_R34_NW REUNION_R50_NE REUNION_R50_SE REUNION_R50_SW REUNION_R50_NW REUNION_R64_NE REUNION_R64_SE REUNION_R64_SW REUNION_R64_NW BOM_LAT BOM_LON BOM_TYPE BOM_WIND BOM_PRES BOM_TNUM BOM_CI BOM_RMW BOM_R34_NE BOM_R34_SE BOM_R34_SW BOM_R34_NW BOM_R50_NE BOM_R50_SE BOM_R50_SW BOM_R50_NW BOM_R64_NE BOM_R64_SE BOM_R64_SW BOM_R64_NW BOM_ROCI BOM_POCI BOM_EYE BOM_POS_METHOD BOM_PRES_METHOD NADI_LAT NADI_LON NADI_CAT NADI_WIND NADI_PRES WELLINGTON_LAT WELLINGTON_LON WELLINGTON_WIND WELLINGTON_PRES DS824_LAT DS824_LON DS824_STAGE DS824_WIND DS824_PRES TD9636_LAT TD9636_LON TD9636_STAGE TD9636_WIND TD9636_PRES TD9635_LAT TD9635_LON TD9635_WIND TD9635_PRES TD9635_ROCI NEUMANN_LAT NEUMANN_LON NEUMANN_CLASS NEUMANN_WIND NEUMANN_PRES MLC_LAT MLC_LON MLC_CLASS MLC_WIND MLC_PRES USA_GUST BOM_GUST BOM_GUST_PER REUNION_GUST REUNION_GUST_PER USA_SEAHGT USA_SEARAD_NE USA_SEARAD_SE USA_SEARAD_SW USA_SEARAD_NW STORM_SPEED STORM_DIR
2001324S12081 2002 96 SI MM NOT_NAMED 2001-11-20 06:00:00 TS -11.5000 81.1000 main 1950 1950 O___________O_ jtwc_sh SH042002 -11.5000 81.1000 TD 25 1002 -1 1006 120 35 -11.5000 81.1000 TC 25 6 100
2001324S12081 2002 96 SI MM NOT_NAMED 2001-11-20 09:00:00 TS -11.5576 81.4175 main 1962 1962 P___________P_ SH042002 -11.5576 81.4175 TD 25 1002 -1 1006 120 35 -11.5576 81.4175 TC 25 6 100
2001324S12081 2002 96 SI MM NOT_NAMED 2001-11-20 12:00:00 TS -11.6000 81.7000 main 1964 1964 O___________O_ jtwc_sh SH042002 -11.6000 81.7000 TD 25 1002 -1 1006 120 35 -11.6000 81.7000 TC 25 5 97
2001324S12081 2002 96 SI MM NOT_NAMED 2001-11-20 15:00:00 TS -11.6150 81.9225 main 1966 1966 P___________P_ SH042002 -11.6150 81.9225 TD 25 1002 -1 1006 120 35 -11.6150 81.9225 TC 25 4 90
2001324S12081 2002 96 SI MM NOT_NAMED 2001-11-20 18:00:00 TS -11.6000 82.1000 main 1967 1967 O___________O_ jtwc_sh SH042002 -11.6000 82.1000 TD 25 1002 -1 1006 120 35 -11.6000 82.1000 TC 25 3 80
2001324S12081 2002 96 SI MM NOT_NAMED 2001-11-20 21:00:00 TS -11.5575 82.2575 main 1969 1958 P___________P_ SH042002 -11.5575 82.2575 TD 27 1001 -1 1006 120 35 -11.5575 82.2575 TC 27 3 71
2001324S12081 2002 96 SI MM NOT_NAMED 2001-11-21 00:00:00 TS -11.5000 82.4000 main 1959 1949 O___________O_ jtwc_sh SH042002 -11.5000 82.4000 TD 30 1000 -1 1006 120 35 -11.5000 82.4000 TC 30 3 69
2001324S12081 2002 96 SI MM NOT_NAMED 2001-11-21 03:00:00 TS -11.4425 82.5650 main 1951 1951 P___________P_ SH042002 -11.4425 82.5650 TD 30 1000 -1 1006 120 40 -11.4425 82.5650 TC 30 3 71
2001324S12081 2002 96 SI MM NOT_NAMED 2001-11-21 06:00:00 TS -11.4000 82.7000 main 1952 1952 O___________O_ jtwc_sh SH042002 -11.4000 82.7000 TD 30 1000 -1 1006 120 45 -11.4000 82.7000 TC 30 2 74
2001324S12081 2002 96 SI MM NOT_NAMED 2001-11-21 09:00:00 TS -11.3850 82.7650 main 1953 1953 P___________P_ SH042002 -11.3850 82.7650 TD 32 998 -1 1005 120 45 -11.3850 82.7650 TC 32 1 90
2001324S12081 2002 96 SI MM NOT_NAMED 2001-11-21 12:00:00 TS -11.4000 82.8000 main 1953 1953 O___________O_ jtwc_sh SH042002 -11.4000 82.8000 TS 35 997 0 1004 120 45 -11.4000 82.8000 TC 35 1 119
2001324S12081 2002 96 SI MM NOT_NAMED 2001-11-21 15:00:00 TS -11.4275 82.8425 main 1953 1953 P___________P_ SH042002 -11.4275 82.8425 TS 35 997 0 1005 120 45 -11.4275 82.8425 TC 35 1 137
2001324S12081 2002 96 SI MM NOT_NAMED 2001-11-21 18:00:00 TS -11.5000 82.9000 main 1966 1966 O___________O_ jtwc_sh SH042002 -11.5000 82.9000 TS 35 997 0 1007 120 45 -11.5000 82.9000 TC 35 3 142
2001324S12081 2002 96 SI MM NOT_NAMED 2001-11-21 21:00:00 TS -11.6425 83.0075 main 1978 1978 P___________P_ SH042002 -11.6425 83.0075 TS 35 997 0 1007 120 45 -11.6425 83.0075 TC 35 4 147
2001324S12081 2002 96 SI MM NOT_NAMED 2001-11-22 00:00:00 TS -11.8000 83.1000 main 2002 2002 O___________O_ jtwc_sh SH042002 -11.8000 83.1000 TS 35 997 0 1007 120 45 -11.8000 83.1000 TC 35 3 149
2001324S12081 2002 96 SI MM NOT_NAMED 2001-11-22 03:00:00 TS -11.8999 83.1674 main 2015 2015 P___________P_ SH042002 -11.8999 83.1674 TS 35 997 0 1007 120 45 -11.8999 83.1674 TC 35 2 172
2001324S12081 2002 96 SI MM NOT_NAMED 2001-11-22 06:00:00 TS -12.0000 83.1000 main 2024 2023 O___________O_ jtwc_sh SH042002 -12.0000 83.1000 TS 35 997 0 1007 120 45 -12.0000 83.1000 TC 35 4 234
2001324S12081 2002 96 SI MM NOT_NAMED 2001-11-22 09:00:00 TS -12.1501 82.8101 main 2042 2040 P___________P_ SH042002 -12.1501 82.8101 TS 35 997 0 1007 120 45 -12.1501 82.8101 TC 35 7 246
2001324S12081 2002 96 SI MM NOT_NAMED 2001-11-22 12:00:00 TS -12.3000 82.4000 main 2048 2047 O___________O_ jtwc_sh SH042002 -12.3000 82.4000 TS 35 997 0 1007 120 45 -12.3000 82.4000 TC 35 8 251
2001324S12081 2002 96 SI MM NOT_NAMED 2001-11-22 15:00:00 TS -12.4149 82.0150 main 2056 2055 P___________P_ SH042002 -12.4149 82.0150 TS 32 998 -1 1007 120 45 -12.4149 82.0150 TC 32 8 256
2001324S12081 2002 96 SI MM NOT_NAMED 2001-11-22 18:00:00 TS -12.5000 81.6000 main 2064 2062 O___________O_ jtwc_sh SH042002 -12.5000 81.6000 TD 30 1000 -1 1007 120 45 -12.5000 81.6000 TC 30 9 261
2001324S12081 2002 96 SI MM NOT_NAMED 2001-11-22 21:00:00 TS -12.5500 81.1424 main 2073 2072 P___________P_ SH042002 -12.5500 81.1424 TD 27 1001 -1 1007 120 45 -12.5500 81.1424 TC 27 9 264
2001324S12081 2002 96 SI MM NOT_NAMED 2001-11-23 00:00:00 TS -12.6000 80.7000 main 2072 2072 O___________O_ jtwc_sh SH042002 -12.6000 80.7000 TD 25 1002 -1 1007 120 45 -12.6000 80.7000 TC 25 8 259
2001324S12081 2002 96 SI MM NOT_NAMED 2001-11-23 03:00:00 TS -12.6999 80.3425 main 2084 2084 P___________P_ SH042002 -12.6999 80.3425 TD 25 1001 -1 1007 120 45 -12.6999 80.3425 TC 25 7 254
2001324S12081 2002 96 SI MM NOT_NAMED 2001-11-23 06:00:00 TS -12.8000 80.0000 main 2096 2096 O___________O_ jtwc_sh SH042002 -12.8000 80.0000 TD 25 1000 -1 1007 120 45 -12.8000 80.0000 TC 25 7 257
2001324S12081 2002 96 SI MM NOT_NAMED 2001-11-23 09:00:00 TS -12.8650 79.6075 main 2109 2109 P___________P_ SH042002 -12.8650 79.6075 TD 25 1001 -1 1007 120 45 -12.8650 79.6075 TC 25 8 263
2001324S12081 2002 96 SI MM NOT_NAMED 2001-11-23 12:00:00 TS -12.9000 79.2000 main 2112 2112 O___________O_ jtwc_sh SH042002 -12.9000 79.2000 TD 25 1002 -1 1007 120 45 -12.9000 79.2000 TC 25 8 267
2001324S12081 2002 96 SI MM NOT_NAMED 2001-11-23 15:00:00 TS -12.9075 78.7850 main 2115 2115 P___________P_ SH042002 -12.9075 78.7850 TD 25 1002 -1 1007 120 45 -12.9075 78.7850 TC 25 8 270
2001324S12081 2002 96 SI MM NOT_NAMED 2001-11-23 18:00:00 TS -12.9000 78.4000 main 2120 2120 O___________O_ jtwc_sh SH042002 -12.9000 78.4000 TD 25 1002 -1 1007 120 45 -12.9000 78.4000 TC 25 7 271
2001324S12081 2002 96 SI MM NOT_NAMED 2001-11-23 21:00:00 TS -12.9000 78.0700 main 2124 2124 P___________P_ SH042002 -12.9000 78.0700 TD 25 1002 -1 1007 120 45 -12.9000 78.0700 TC 25 6 270
2001324S12081 2002 96 SI MM NOT_NAMED 2001-11-24 00:00:00 TS -12.9000 77.8000 main 2128 2128 O___________O_ jtwc_sh SH042002 -12.9000 77.8000 TD 25 1002 -1 1007 120 45 -12.9000 77.8000 TC 25 5 270
2001324S12081 2002 96 SI MM NOT_NAMED 2001-11-24 03:00:00 TS -12.8999 77.5925 main 2132 2132 P___________P_ SH042002 -12.8999 77.5925 TD 25 1002 -1 -12.8999 77.5925 TC 25 4 270
2001324S12081 2002 96 SI MM NOT_NAMED 2001-11-24 06:00:00 TS -12.9000 77.4000 main 2135 2135 O___________O_ jtwc_sh SH042002 -12.9000 77.4000 TD 25 1002 -1 -12.9000 77.4000 TC 25 4 270
2001324S12081 2002 96 SI MM NOT_NAMED 2001-11-24 09:00:00 TS -12.9001 77.1650 main 2139 2139 P___________P_ SH042002 -12.9001 77.1650 TD 25 1002 -1 -12.9001 77.1650 TC 25 5 270
2001324S12081 2002 96 SI MM NOT_NAMED 2001-11-24 12:00:00 TS -12.9000 76.9000 main 2145 O___________O_ jtwc_sh SH042002 -12.9000 76.9000 TD 25 1002 -1 -12.9000 76.9000 TC 25 5 270

IBTrACS Databaseについて

本データベースは、米国NOAAが公開する1842年以降の世界の熱帯低気圧のベストトラックデータアーカイブInternational Best Track Archive for Climate Stewardship (IBTrACS)を、ウェブで閲覧しやすい形式に変換したものです。

最終更新日:2021-10-21